IALES LIML-LDPL
Flight info
| Callsign | IALES |
|---|---|
| Flight time | 0h 56m |
| Altitude | 19000 |
| Route | ELTAR6C ELTAR L615 IDREK/N0433F410 DCT LABIN LABIN2Z |
| Aircraft | C25C/M-SFG/C |
Departure
| Time | 2026-04-23 16:27 |
|---|---|
| Airport | Milano Linate Airport (LIML) |
Arrival
| Time | 2026-04-23 17:23 |
|---|---|
| Airport | Pula Airport (LDPL) |
| Time | Latitude | Longitude | Altitude | Speed | Heading |
|---|---|---|---|---|---|
| 2026-04-23 15:47 | 45.45483 | 9.26325 | 359 ft | 0 kts | 66° |
| 2026-04-23 16:15 | 45.45482 | 9.26319 | 356 ft | 2 kts | 67° |
| 2026-04-23 16:15 | 45.45475 | 9.26298 | 358 ft | 2 kts | 68° |
| 2026-04-23 16:15 | 45.45470 | 9.26276 | 357 ft | 2 kts | 73° |
| 2026-04-23 16:15 | 45.45469 | 9.26253 | 356 ft | 2 kts | 135° |
| 2026-04-23 16:16 | 45.45472 | 9.26250 | 356 ft | 0 kts | 151° |
| 2026-04-23 16:17 | 45.45472 | 9.26270 | 359 ft | 4 kts | 41° |
| 2026-04-23 16:17 | 45.45505 | 9.26238 | 356 ft | 10 kts | 317° |
| 2026-04-23 16:18 | 45.45549 | 9.26222 | 363 ft | 6 kts | 327° |
| 2026-04-23 16:18 | 45.45577 | 9.26184 | 356 ft | 6 kts | 318° |
| 2026-04-23 16:18 | 45.45639 | 9.26156 | 361 ft | 16 kts | 357° |
| 2026-04-23 16:18 | 45.45778 | 9.26142 | 356 ft | 23 kts | 357° |
| 2026-04-23 16:19 | 45.45939 | 9.26234 | 356 ft | 28 kts | 41° |
| 2026-04-23 16:19 | 45.46039 | 9.26385 | 356 ft | 20 kts | 61° |
| 2026-04-23 16:19 | 45.46068 | 9.26574 | 356 ft | 20 kts | 91° |
| 2026-04-23 16:19 | 45.46066 | 9.26778 | 356 ft | 24 kts | 91° |
| 2026-04-23 16:20 | 45.46049 | 9.27051 | 359 ft | 31 kts | 105° |
| 2026-04-23 16:20 | 45.46014 | 9.27375 | 356 ft | 34 kts | 87° |
| 2026-04-23 16:20 | 45.46001 | 9.27641 | 356 ft | 25 kts | 114° |
| 2026-04-23 16:20 | 45.45908 | 9.27837 | 356 ft | 23 kts | 100° |
| 2026-04-23 16:21 | 45.45873 | 9.27990 | 356 ft | 14 kts | 179° |
| 2026-04-23 16:21 | 45.45759 | 9.27985 | 356 ft | 18 kts | 181° |
| 2026-04-23 16:21 | 45.45619 | 9.27981 | 356 ft | 22 kts | 181° |
| 2026-04-23 16:21 | 45.45454 | 9.27981 | 355 ft | 25 kts | 179° |
| 2026-04-23 16:22 | 45.45290 | 9.27908 | 354 ft | 26 kts | 207° |
| 2026-04-23 16:22 | 45.45112 | 9.27877 | 356 ft | 26 kts | 175° |
| 2026-04-23 16:22 | 45.44930 | 9.27905 | 357 ft | 26 kts | 164° |
| 2026-04-23 16:22 | 45.44751 | 9.27950 | 351 ft | 28 kts | 176° |
| 2026-04-23 16:23 | 45.44538 | 9.27972 | 349 ft | 33 kts | 174° |
| 2026-04-23 16:23 | 45.44293 | 9.28000 | 347 ft | 38 kts | 176° |
| 2026-04-23 16:23 | 45.44022 | 9.28030 | 345 ft | 41 kts | 175° |
| 2026-04-23 16:23 | 45.43736 | 9.28061 | 351 ft | 40 kts | 174° |
| 2026-04-23 16:24 | 45.43533 | 9.28083 | 342 ft | 18 kts | 175° |
| 2026-04-23 16:24 | 45.43447 | 9.28005 | 349 ft | 16 kts | 267° |
| 2026-04-23 16:24 | 45.43445 | 9.27962 | 342 ft | 0 kts | 267° |
| 2026-04-23 16:25 | 45.43445 | 9.27946 | 342 ft | 6 kts | 266° |
| 2026-04-23 16:26 | 45.43450 | 9.27849 | 346 ft | 15 kts | 295° |
| 2026-04-23 16:26 | 45.43563 | 9.27809 | 343 ft | 22 kts | 356° |
| 2026-04-23 16:26 | 45.44008 | 9.27762 | 343 ft | 115 kts | 353° |
| 2026-04-23 16:26 | 45.45064 | 9.27716 | 677 ft | 181 kts | 357° |
| 2026-04-23 16:27 | 45.46462 | 9.27656 | 1462 ft | 216 kts | 359° |
| 2026-04-23 16:27 | 45.48053 | 9.27787 | 2273 ft | 239 kts | 3° |
| 2026-04-23 16:27 | 45.49711 | 9.28043 | 2943 ft | 249 kts | 5° |
| 2026-04-23 16:27 | 45.51450 | 9.28326 | 3595 ft | 241 kts | 4° |
| 2026-04-23 16:28 | 45.53028 | 9.28725 | 4229 ft | 222 kts | 21° |
| 2026-04-23 16:28 | 45.54322 | 9.29759 | 4885 ft | 205 kts | 26° |
| 2026-04-23 16:28 | 45.55576 | 9.30627 | 5529 ft | 195 kts | 26° |
| 2026-04-23 16:28 | 45.56735 | 9.31519 | 6178 ft | 183 kts | 26° |
| 2026-04-23 16:29 | 45.57830 | 9.32340 | 6810 ft | 172 kts | 27° |
| 2026-04-23 16:29 | 45.58947 | 9.33177 | 7455 ft | 193 kts | 27° |
| 2026-04-23 16:29 | 45.60204 | 9.34134 | 8127 ft | 216 kts | 27° |
| 2026-04-23 16:29 | 45.61602 | 9.35182 | 8820 ft | 237 kts | 27° |
| 2026-04-23 16:30 | 45.63115 | 9.36335 | 9554 ft | 256 kts | 27° |
| 2026-04-23 16:30 | 45.64764 | 9.37572 | 9987 ft | 285 kts | 28° |
| 2026-04-23 16:30 | 45.66614 | 9.39026 | 10005 ft | 322 kts | 32° |
| 2026-04-23 16:31 | 45.69299 | 9.43595 | 10715 ft | 255 kts | 54° |
| 2026-04-23 16:31 | 45.70319 | 9.45652 | 10763 ft | 254 kts | 53° |
| 2026-04-23 16:31 | 45.71374 | 9.47684 | 10897 ft | 255 kts | 53° |
| 2026-04-23 16:31 | 45.72428 | 9.49724 | 11137 ft | 255 kts | 53° |
| 2026-04-23 16:32 | 45.73468 | 9.51753 | 11377 ft | 256 kts | 53° |
| 2026-04-23 16:32 | 45.74520 | 9.53801 | 11625 ft | 255 kts | 53° |
| 2026-04-23 16:32 | 45.75564 | 9.55866 | 11869 ft | 256 kts | 55° |
| 2026-04-23 16:32 | 45.76186 | 9.58220 | 12116 ft | 257 kts | 82° |
| 2026-04-23 16:33 | 45.76358 | 9.60827 | 12375 ft | 269 kts | 82° |
| 2026-04-23 16:33 | 45.76524 | 9.63561 | 12640 ft | 281 kts | 85° |
| 2026-04-23 16:33 | 45.76641 | 9.66399 | 12915 ft | 290 kts | 84° |
| 2026-04-23 16:33 | 45.76800 | 9.69321 | 13189 ft | 298 kts | 83° |
| 2026-04-23 16:34 | 45.76967 | 9.72322 | 13464 ft | 306 kts | 84° |
| 2026-04-23 16:34 | 45.77119 | 9.75412 | 13742 ft | 313 kts | 84° |
| 2026-04-23 16:34 | 45.77292 | 9.78515 | 14014 ft | 319 kts | 84° |
| 2026-04-23 16:34 | 45.77452 | 9.81700 | 14258 ft | 322 kts | 84° |
| 2026-04-23 16:35 | 45.77614 | 9.84925 | 14506 ft | 326 kts | 84° |
| 2026-04-23 16:35 | 45.77785 | 9.88178 | 14760 ft | 328 kts | 83° |
| 2026-04-23 16:35 | 45.77956 | 9.91445 | 15012 ft | 330 kts | 84° |
| 2026-04-23 16:35 | 45.78118 | 9.94736 | 15259 ft | 331 kts | 84° |
| 2026-04-23 16:36 | 45.78296 | 9.98039 | 15512 ft | 333 kts | 84° |
| 2026-04-23 16:36 | 45.78454 | 10.01358 | 15761 ft | 334 kts | 84° |
| 2026-04-23 16:36 | 45.78627 | 10.04682 | 16016 ft | 335 kts | 84° |
| 2026-04-23 16:36 | 45.78785 | 10.08012 | 16269 ft | 335 kts | 84° |
| 2026-04-23 16:37 | 45.78854 | 10.11355 | 16518 ft | 339 kts | 94° |
| 2026-04-23 16:37 | 45.78166 | 10.14613 | 16772 ft | 344 kts | 108° |
| 2026-04-23 16:37 | 45.77357 | 10.17783 | 17027 ft | 344 kts | 108° |
| 2026-04-23 16:37 | 45.76435 | 10.20952 | 17290 ft | 345 kts | 110° |
| 2026-04-23 16:38 | 45.75526 | 10.24125 | 17554 ft | 344 kts | 108° |
| 2026-04-23 16:38 | 45.74659 | 10.27306 | 17836 ft | 341 kts | 107° |
| 2026-04-23 16:38 | 45.73786 | 10.30478 | 18107 ft | 343 kts | 108° |
| 2026-04-23 16:38 | 45.72901 | 10.33655 | 18377 ft | 343 kts | 108° |
| 2026-04-23 16:39 | 45.72013 | 10.36835 | 18621 ft | 344 kts | 108° |
| 2026-04-23 16:39 | 45.71127 | 10.40014 | 18851 ft | 343 kts | 108° |
| 2026-04-23 16:39 | 45.70251 | 10.43157 | 19039 ft | 346 kts | 108° |
| 2026-04-23 16:39 | 45.69352 | 10.46379 | 19104 ft | 351 kts | 108° |
| 2026-04-23 16:40 | 45.68437 | 10.49649 | 19139 ft | 357 kts | 108° |
| 2026-04-23 16:40 | 45.67505 | 10.52976 | 19141 ft | 364 kts | 108° |
| 2026-04-23 16:40 | 45.66556 | 10.56357 | 19144 ft | 369 kts | 108° |
| 2026-04-23 16:40 | 45.65594 | 10.59779 | 19153 ft | 372 kts | 108° |
| 2026-04-23 16:41 | 45.64819 | 10.63295 | 19150 ft | 370 kts | 94° |
| 2026-04-23 16:41 | 45.64734 | 10.66964 | 19152 ft | 371 kts | 88° |
| 2026-04-23 16:41 | 45.64656 | 10.70668 | 19149 ft | 373 kts | 88° |
| 2026-04-23 16:41 | 45.64666 | 10.74381 | 19152 ft | 374 kts | 86° |
| 2026-04-23 16:42 | 45.64655 | 10.78102 | 19149 ft | 375 kts | 88° |
| 2026-04-23 16:42 | 45.64494 | 10.81820 | 19143 ft | 379 kts | 98° |
| 2026-04-23 16:42 | 45.63667 | 10.85369 | 19131 ft | 368 kts | 107° |
| 2026-04-23 16:42 | 45.62768 | 10.88716 | 19123 ft | 355 kts | 108° |
| 2026-04-23 16:43 | 45.61829 | 10.91961 | 19128 ft | 356 kts | 108° |
| 2026-04-23 16:43 | 45.60892 | 10.95268 | 19129 ft | 362 kts | 107° |
| 2026-04-23 16:43 | 45.59973 | 10.98595 | 19127 ft | 365 kts | 108° |
| 2026-04-23 16:43 | 45.59050 | 11.01955 | 19138 ft | 363 kts | 108° |
| 2026-04-23 16:44 | 45.58092 | 11.05299 | 19140 ft | 364 kts | 108° |
| 2026-04-23 16:44 | 45.57156 | 11.08654 | 19140 ft | 364 kts | 107° |
| 2026-04-23 16:44 | 45.56223 | 11.12011 | 19140 ft | 365 kts | 107° |
| 2026-04-23 16:44 | 45.55273 | 11.15372 | 19136 ft | 366 kts | 108° |
| 2026-04-23 16:45 | 45.54324 | 11.18744 | 19135 ft | 366 kts | 107° |
| 2026-04-23 16:45 | 45.53374 | 11.22121 | 19136 ft | 367 kts | 108° |
| 2026-04-23 16:45 | 45.52416 | 11.25495 | 19139 ft | 367 kts | 107° |
| 2026-04-23 16:45 | 45.51465 | 11.28876 | 19134 ft | 368 kts | 108° |
| 2026-04-23 16:46 | 45.50508 | 11.32263 | 19132 ft | 369 kts | 108° |
| 2026-04-23 16:46 | 45.49546 | 11.35654 | 19131 ft | 369 kts | 108° |
| 2026-04-23 16:46 | 45.48581 | 11.39050 | 19131 ft | 368 kts | 108° |
| 2026-04-23 16:46 | 45.47616 | 11.42438 | 19129 ft | 368 kts | 108° |
| 2026-04-23 16:47 | 45.46659 | 11.45814 | 19127 ft | 367 kts | 108° |
| 2026-04-23 16:47 | 45.45696 | 11.49185 | 19129 ft | 367 kts | 108° |
| 2026-04-23 16:47 | 45.44742 | 11.52561 | 19130 ft | 367 kts | 107° |
| 2026-04-23 16:47 | 45.43779 | 11.55930 | 19131 ft | 367 kts | 108° |
| 2026-04-23 16:48 | 45.42811 | 11.59246 | 19126 ft | 367 kts | 108° |
| 2026-04-23 16:48 | 45.41857 | 11.62620 | 19125 ft | 367 kts | 108° |
| 2026-04-23 16:48 | 45.40893 | 11.65984 | 19131 ft | 366 kts | 108° |
| 2026-04-23 16:48 | 45.39927 | 11.69344 | 19138 ft | 367 kts | 108° |
| 2026-04-23 16:49 | 45.39278 | 11.71563 | 19134 ft | 367 kts | 108° |
| 2026-04-23 16:49 | 45.37997 | 11.76065 | 19134 ft | 366 kts | 108° |
| 2026-04-23 16:49 | 45.37017 | 11.79421 | 19134 ft | 366 kts | 109° |
| 2026-04-23 16:49 | 45.36052 | 11.82768 | 19134 ft | 366 kts | 108° |
| 2026-04-23 16:50 | 45.35086 | 11.86119 | 19134 ft | 366 kts | 108° |
| 2026-04-23 16:50 | 45.34118 | 11.89465 | 19133 ft | 366 kts | 108° |
| 2026-04-23 16:50 | 45.33162 | 11.92768 | 19133 ft | 366 kts | 109° |
| 2026-04-23 16:50 | 45.32184 | 11.96096 | 19134 ft | 365 kts | 108° |
| 2026-04-23 16:51 | 45.31219 | 11.99444 | 19139 ft | 365 kts | 108° |
| 2026-04-23 16:51 | 45.30245 | 12.02780 | 19138 ft | 365 kts | 108° |
| 2026-04-23 16:51 | 45.29276 | 12.06114 | 19142 ft | 365 kts | 109° |
| 2026-04-23 16:51 | 45.28299 | 12.09444 | 19139 ft | 365 kts | 109° |
| 2026-04-23 16:52 | 45.27327 | 12.12782 | 19139 ft | 365 kts | 109° |
| 2026-04-23 16:52 | 45.26345 | 12.16122 | 19139 ft | 365 kts | 109° |
| 2026-04-23 16:52 | 45.25373 | 12.19453 | 19138 ft | 365 kts | 109° |
| 2026-04-23 16:52 | 45.24392 | 12.22777 | 19138 ft | 365 kts | 109° |
| 2026-04-23 16:53 | 45.23436 | 12.26067 | 19138 ft | 365 kts | 109° |
| 2026-04-23 16:53 | 45.22450 | 12.29386 | 19138 ft | 365 kts | 109° |
| 2026-04-23 16:53 | 45.21467 | 12.32703 | 19138 ft | 365 kts | 109° |
| 2026-04-23 16:53 | 45.20492 | 12.36023 | 19138 ft | 365 kts | 109° |
| 2026-04-23 16:54 | 45.19514 | 12.39341 | 19136 ft | 365 kts | 109° |
| 2026-04-23 16:54 | 45.18536 | 12.42665 | 19138 ft | 365 kts | 109° |
| 2026-04-23 16:54 | 45.17540 | 12.45983 | 19136 ft | 365 kts | 109° |
| 2026-04-23 16:54 | 45.16557 | 12.49312 | 19137 ft | 365 kts | 108° |
| 2026-04-23 16:55 | 45.15570 | 12.52633 | 19140 ft | 365 kts | 109° |
| 2026-04-23 16:55 | 45.14587 | 12.55952 | 19142 ft | 365 kts | 109° |
| 2026-04-23 16:55 | 45.13599 | 12.59267 | 19143 ft | 365 kts | 109° |
| 2026-04-23 16:55 | 45.12611 | 12.62583 | 19141 ft | 365 kts | 109° |
| 2026-04-23 16:56 | 45.11616 | 12.65890 | 19146 ft | 365 kts | 109° |
| 2026-04-23 16:56 | 45.10644 | 12.69158 | 19147 ft | 365 kts | 109° |
| 2026-04-23 16:56 | 45.09651 | 12.72463 | 19147 ft | 365 kts | 109° |
| 2026-04-23 16:56 | 45.08662 | 12.75777 | 19149 ft | 365 kts | 109° |
| 2026-04-23 16:57 | 45.07664 | 12.79083 | 19144 ft | 365 kts | 109° |
| 2026-04-23 16:57 | 45.06675 | 12.82388 | 19146 ft | 365 kts | 109° |
| 2026-04-23 16:57 | 45.05677 | 12.85688 | 19145 ft | 365 kts | 109° |
| 2026-04-23 16:57 | 45.04686 | 12.88992 | 19148 ft | 365 kts | 109° |
| 2026-04-23 16:58 | 45.03686 | 12.92287 | 19152 ft | 364 kts | 109° |
| 2026-04-23 16:58 | 45.02695 | 12.95586 | 19153 ft | 364 kts | 109° |
| 2026-04-23 16:58 | 45.01695 | 12.98872 | 19156 ft | 364 kts | 109° |
| 2026-04-23 16:58 | 45.00702 | 13.02170 | 19152 ft | 364 kts | 109° |
| 2026-04-23 16:59 | 44.99699 | 13.05457 | 19156 ft | 364 kts | 109° |
| 2026-04-23 16:59 | 44.98706 | 13.08743 | 19155 ft | 364 kts | 109° |
| 2026-04-23 16:59 | 44.97564 | 13.11952 | 19156 ft | 366 kts | 114° |
| 2026-04-23 16:59 | 44.96411 | 13.15150 | 19153 ft | 365 kts | 112° |
| 2026-04-23 17:00 | 44.95665 | 13.17284 | 19156 ft | 366 kts | 112° |
| 2026-04-23 17:00 | 44.94130 | 13.21576 | 19155 ft | 366 kts | 112° |
| 2026-04-23 17:00 | 44.92972 | 13.24776 | 19160 ft | 366 kts | 112° |
| 2026-04-23 17:00 | 44.91835 | 13.27937 | 19160 ft | 366 kts | 112° |
| 2026-04-23 17:01 | 44.90681 | 13.31142 | 19160 ft | 366 kts | 112° |
| 2026-04-23 17:01 | 44.89529 | 13.34339 | 19161 ft | 366 kts | 112° |
| 2026-04-23 17:01 | 44.88372 | 13.37539 | 19159 ft | 366 kts | 113° |
| 2026-04-23 17:01 | 44.87215 | 13.40741 | 19161 ft | 366 kts | 112° |
| 2026-04-23 17:02 | 44.86451 | 13.42859 | 19168 ft | 366 kts | 112° |
| 2026-04-23 17:02 | 44.84898 | 13.47137 | 19151 ft | 367 kts | 112° |
| 2026-04-23 17:02 | 44.83732 | 13.50354 | 18799 ft | 362 kts | 113° |
| 2026-04-23 17:02 | 44.82600 | 13.53433 | 18322 ft | 344 kts | 112° |
| 2026-04-23 17:03 | 44.81538 | 13.56361 | 17855 ft | 328 kts | 112° |
| 2026-04-23 17:03 | 44.80536 | 13.59139 | 17433 ft | 316 kts | 112° |
| 2026-04-23 17:03 | 44.79534 | 13.61872 | 17016 ft | 312 kts | 112° |
| 2026-04-23 17:03 | 44.78555 | 13.64575 | 16606 ft | 310 kts | 112° |
| 2026-04-23 17:04 | 44.77596 | 13.67277 | 16192 ft | 305 kts | 107° |
| 2026-04-23 17:04 | 44.77203 | 13.70149 | 15792 ft | 296 kts | 90° |
| 2026-04-23 17:04 | 44.77200 | 13.73024 | 15403 ft | 293 kts | 84° |
| 2026-04-23 17:04 | 44.77272 | 13.75877 | 15017 ft | 291 kts | 84° |
| 2026-04-23 17:05 | 44.77367 | 13.78723 | 14638 ft | 290 kts | 84° |
| 2026-04-23 17:05 | 44.77416 | 13.81560 | 14250 ft | 290 kts | 85° |
| 2026-04-23 17:05 | 44.77481 | 13.84398 | 13857 ft | 289 kts | 84° |
| 2026-04-23 17:05 | 44.77541 | 13.87183 | 13461 ft | 288 kts | 84° |
| 2026-04-23 17:06 | 44.77605 | 13.90022 | 13075 ft | 285 kts | 84° |
| 2026-04-23 17:06 | 44.77664 | 13.92758 | 12705 ft | 280 kts | 84° |
| 2026-04-23 17:06 | 44.77712 | 13.95474 | 12337 ft | 275 kts | 83° |
| 2026-04-23 17:06 | 44.77782 | 13.98155 | 11976 ft | 272 kts | 83° |
| 2026-04-23 17:07 | 44.77837 | 14.00818 | 11515 ft | 273 kts | 83° |
| 2026-04-23 17:07 | 44.77889 | 14.03482 | 11121 ft | 271 kts | 84° |
| 2026-04-23 17:07 | 44.77938 | 14.06121 | 10760 ft | 267 kts | 83° |
| 2026-04-23 17:07 | 44.77995 | 14.08712 | 10420 ft | 262 kts | 83° |
| 2026-04-23 17:08 | 44.78042 | 14.11231 | 10072 ft | 252 kts | 82° |
| 2026-04-23 17:08 | 44.78090 | 14.13661 | 9723 ft | 245 kts | 83° |
| 2026-04-23 17:08 | 44.78138 | 14.15990 | 9403 ft | 238 kts | 82° |
| 2026-04-23 17:08 | 44.78181 | 14.18310 | 9099 ft | 237 kts | 83° |
| 2026-04-23 17:09 | 44.78232 | 14.20630 | 8782 ft | 238 kts | 83° |
| 2026-04-23 17:09 | 44.78271 | 14.22971 | 8467 ft | 240 kts | 83° |
| 2026-04-23 17:09 | 44.78321 | 14.25326 | 8147 ft | 242 kts | 83° |
| 2026-04-23 17:09 | 44.78359 | 14.27700 | 7832 ft | 243 kts | 83° |
| 2026-04-23 17:10 | 44.78409 | 14.30090 | 7513 ft | 244 kts | 84° |
| 2026-04-23 17:10 | 44.78440 | 14.32410 | 7224 ft | 224 kts | 83° |
| 2026-04-23 17:10 | 44.78479 | 14.34507 | 6935 ft | 207 kts | 83° |
| 2026-04-23 17:10 | 44.78515 | 14.36486 | 6658 ft | 199 kts | 83° |
| 2026-04-23 17:11 | 44.78552 | 14.38412 | 6370 ft | 199 kts | 82° |
| 2026-04-23 17:11 | 44.78999 | 14.40182 | 6092 ft | 191 kts | 53° |
| 2026-04-23 17:11 | 44.79934 | 14.41450 | 5846 ft | 187 kts | 28° |
| 2026-04-23 17:11 | 44.81174 | 14.41976 | 5600 ft | 188 kts | 6° |
| 2026-04-23 17:12 | 44.82483 | 14.41917 | 5359 ft | 188 kts | 0° |
| 2026-04-23 17:12 | 44.83804 | 14.41881 | 5104 ft | 190 kts | 0° |
| 2026-04-23 17:12 | 44.85109 | 14.41831 | 4855 ft | 191 kts | 360° |
| 2026-04-23 17:12 | 44.86433 | 14.41787 | 4597 ft | 190 kts | 358° |
| 2026-04-23 17:13 | 44.87764 | 14.41741 | 4342 ft | 191 kts | 358° |
| 2026-04-23 17:13 | 44.89018 | 14.41234 | 4080 ft | 191 kts | 327° |
| 2026-04-23 17:13 | 44.89925 | 14.39914 | 4008 ft | 187 kts | 301° |
| 2026-04-23 17:13 | 44.90244 | 14.38154 | 3921 ft | 188 kts | 275° |
| 2026-04-23 17:14 | 44.90218 | 14.36300 | 3730 ft | 180 kts | 271° |
| 2026-04-23 17:14 | 44.90178 | 14.34654 | 3510 ft | 157 kts | 271° |
| 2026-04-23 17:14 | 44.90150 | 14.33221 | 3349 ft | 138 kts | 273° |
| 2026-04-23 17:14 | 44.90125 | 14.31922 | 3280 ft | 128 kts | 275° |
| 2026-04-23 17:15 | 44.90108 | 14.30689 | 3272 ft | 125 kts | 274° |
| 2026-04-23 17:15 | 44.90091 | 14.29454 | 3280 ft | 126 kts | 274° |
| 2026-04-23 17:15 | 44.90065 | 14.28215 | 3280 ft | 126 kts | 274° |
| 2026-04-23 17:15 | 44.90049 | 14.26993 | 3281 ft | 129 kts | 273° |
| 2026-04-23 17:16 | 44.90028 | 14.25680 | 3286 ft | 138 kts | 275° |
| 2026-04-23 17:16 | 44.89997 | 14.24311 | 3279 ft | 143 kts | 274° |
| 2026-04-23 17:16 | 44.89975 | 14.22911 | 3276 ft | 142 kts | 274° |
| 2026-04-23 17:16 | 44.89953 | 14.21996 | 3276 ft | 141 kts | 272° |
| 2026-04-23 17:17 | 44.89931 | 14.20613 | 3275 ft | 141 kts | 272° |
| 2026-04-23 17:17 | 44.89902 | 14.19239 | 3277 ft | 140 kts | 274° |
| 2026-04-23 17:17 | 44.89874 | 14.17861 | 3278 ft | 140 kts | 273° |
| 2026-04-23 17:17 | 44.89852 | 14.16475 | 3230 ft | 143 kts | 272° |
| 2026-04-23 17:18 | 44.89790 | 14.13837 | 3011 ft | 116 kts | 275° |
| 2026-04-23 17:18 | 44.89777 | 14.12744 | 2895 ft | 108 kts | 275° |
| 2026-04-23 17:18 | 44.89751 | 14.11699 | 2805 ft | 105 kts | 278° |
| 2026-04-23 17:19 | 44.89751 | 14.10693 | 2760 ft | 99 kts | 282° |
| 2026-04-23 17:19 | 44.89755 | 14.09715 | 2646 ft | 104 kts | 273° |
| 2026-04-23 17:19 | 44.89754 | 14.08686 | 2502 ft | 106 kts | 275° |
| 2026-04-23 17:19 | 44.89736 | 14.07644 | 2351 ft | 106 kts | 276° |
| 2026-04-23 17:20 | 44.89711 | 14.06595 | 2198 ft | 108 kts | 273° |
| 2026-04-23 17:20 | 44.89661 | 14.04485 | 1882 ft | 107 kts | 275° |
| 2026-04-23 17:21 | 44.89610 | 14.02307 | 1550 ft | 114 kts | 272° |
| 2026-04-23 17:21 | 44.89582 | 14.01196 | 1391 ft | 114 kts | 272° |
| 2026-04-23 17:21 | 44.89530 | 13.99060 | 1080 ft | 105 kts | 269° |
| 2026-04-23 17:22 | 44.89503 | 13.98061 | 915 ft | 101 kts | 271° |
| 2026-04-23 17:22 | 44.89443 | 13.96118 | 632 ft | 98 kts | 267° |
| 2026-04-23 17:23 | 44.89397 | 13.94156 | 310 ft | 103 kts | 268° |
| 2026-04-23 17:23 | 44.89378 | 13.93224 | 229 ft | 85 kts | 268° |
| 2026-04-23 17:23 | 44.89364 | 13.92674 | 209 ft | 17 kts | 269° |
| 2026-04-23 17:24 | 44.89361 | 13.92415 | 202 ft | 29 kts | 267° |
| 2026-04-23 17:24 | 44.89354 | 13.92110 | 194 ft | 32 kts | 269° |
| 2026-04-23 17:24 | 44.89505 | 13.91928 | 191 ft | 20 kts | 358° |
| 2026-04-23 17:25 | 44.89627 | 13.92166 | 197 ft | 16 kts | 91° |
| 2026-04-23 17:25 | 44.89649 | 13.92220 | 199 ft | 5 kts | 5° |
| 2026-04-23 17:26 | 44.89670 | 13.92223 | 199 ft | 0 kts | 7° |